Time;durP1;ratioP1;P1;durP2;ratioP2;P2;SDS_P1;SDS_P2;PMS_P1;PMS_P2;Temp;Humidity;BMP_temperature;BMP_pressure;BME280_temperature;BME280_humidity;BME280_pressure;Samples;Min_cycle;Max_cycle;Signal;HPM_P1;HPM_P2
2023/02/06 00:00:44;;;;;;;21.10;14.33;;;;;20.90;103010.00;;;;2085230;28;20668;-53
2023/02/06 00:01:46;;;;;;;21.88;14.02;;;;;20.90;103018.00;;;;2085437;28;20236;-50
2023/02/06 00:02:46;;;;;;;17.70;12.80;;;;;20.90;103017.00;;;;2086490;28;20220;-50
2023/02/06 00:03:47;;;;;;;16.97;11.83;;;;;20.90;103018.00;;;;2086396;28;20215;-51
2023/02/06 00:04:47;;;;;;;18.00;12.93;;;;;20.90;103016.00;;;;2084506;28;20208;-50
2023/02/06 00:05:55;;;;;;;18.50;13.20;;;;;20.80;103011.00;;;;2086559;28;20212;-50
2023/02/06 00:06:55;;;;;;;15.35;12.50;;;;;20.80;103015.00;;;;2086822;28;20217;-50
2023/02/06 00:07:56;;;;;;;23.03;13.00;;;;;20.80;103015.00;;;;2084236;28;20224;-50
2023/02/06 00:08:56;;;;;;;21.00;12.93;;;;;20.80;103012.00;;;;2085071;28;20278;-49
2023/02/06 00:09:56;;;;;;;20.40;12.33;;;;;20.80;103014.00;;;;2086076;28;20719;-50
2023/02/06 00:10:57;;;;;;;17.53;11.67;;;;;20.80;103006.00;;;;2086193;28;20712;-51
2023/02/06 00:11:57;;;;;;;16.60;11.60;;;;;20.80;103006.00;;;;2086710;28;20684;-51
2023/02/06 00:12:57;;;;;;;20.83;13.63;;;;;20.80;103014.00;;;;2086411;28;20231;-50
2023/02/06 00:13:57;;;;;;;20.53;12.90;;;;;20.80;103000.00;;;;2086217;28;20213;-51
2023/02/06 00:14:58;;;;;;;22.17;13.30;;;;;20.80;103008.00;;;;2086459;28;20692;-50
2023/02/06 00:15:58;;;;;;;17.30;11.13;;;;;20.80;103012.00;;;;2082121;28;20746;-50
2023/02/06 00:16:59;;;;;;;15.30;11.27;;;;;20.80;103012.00;;;;2093864;28;20251;-50
2023/02/06 00:18:00;;;;;;;16.30;11.13;;;;;20.80;103008.00;;;;2086137;28;20219;-51
2023/02/06 00:19:00;;;;;;;19.23;11.90;;;;;20.80;102999.00;;;;2085335;28;20239;-51
2023/02/06 00:20:02;;;;;;;17.60;12.50;;;;;20.80;103001.00;;;;2085927;28;20212;-50
2023/02/06 00:21:02;;;;;;;17.70;10.30;;;;;20.70;103002.00;;;;2086120;28;20225;-50
2023/02/06 00:22:03;;;;;;;15.57;10.07;;;;;20.70;103006.00;;;;2086083;28;20228;-49
2023/02/06 00:23:03;;;;;;;15.93;10.50;;;;;20.70;103003.00;;;;2086999;28;20220;-50
2023/02/06 00:24:04;;;;;;;20.23;11.27;;;;;20.70;103003.00;;;;2088393;28;20247;-50
2023/02/06 00:25:04;;;;;;;15.77;10.60;;;;;20.70;102999.00;;;;2087252;28;20868;-51
2023/02/06 00:26:05;;;;;;;15.40;10.10;;;;;20.70;103004.00;;;;2087131;28;20217;-49
2023/02/06 00:27:06;;;;;;;16.20;9.70;;;;;20.70;102998.00;;;;2088199;28;20350;-50
2023/02/06 00:28:06;;;;;;;16.70;10.57;;;;;20.70;102994.00;;;;2087004;28;20467;-50
2023/02/06 00:29:07;;;;;;;15.63;9.50;;;;;20.70;102997.00;;;;2088171;28;20542;-51
2023/02/06 00:30:07;;;;;;;17.00;10.47;;;;;20.70;102989.00;;;;2088380;28;20217;-50
2023/02/06 00:31:08;;;;;;;11.73;8.90;;;;;20.70;102995.00;;;;2087963;28;20227;-50
2023/02/06 00:32:08;;;;;;;15.80;10.00;;;;;20.70;102997.00;;;;2087879;28;20228;-50
2023/02/06 00:33:08;;;;;;;14.30;9.30;;;;;20.60;103001.00;;;;2086909;28;20217;-51
2023/02/06 00:34:09;;;;;;;15.73;10.50;;;;;20.60;103005.00;;;;2080738;28;20228;-50
2023/02/06 00:35:09;;;;;;;14.03;9.87;;;;;20.60;102998.00;;;;2095742;28;20208;-50
2023/02/06 00:36:09;;;;;;;12.97;8.60;;;;;20.60;102996.00;;;;2092969;28;20220;-50
2023/02/06 00:37:10;;;;;;;14.80;8.73;;;;;20.60;102994.00;;;;2088378;28;20239;-50
2023/02/06 00:38:10;;;;;;;16.73;9.30;;;;;20.70;102995.00;;;;2087386;28;20223;-50
2023/02/06 00:39:10;;;;;;;12.57;8.40;;;;;20.60;102997.00;;;;2087543;28;20213;-50
2023/02/06 00:40:11;;;;;;;15.43;9.10;;;;;20.60;102991.00;;;;2088090;28;20221;-50
2023/02/06 00:41:11;;;;;;;15.30;8.53;;;;;20.60;102995.00;;;;2088453;28;20277;-50
2023/02/06 00:42:11;;;;;;;13.63;8.47;;;;;20.60;103000.00;;;;2087980;28;20213;-51
2023/02/06 00:43:12;;;;;;;12.03;8.03;;;;;20.60;102987.00;;;;2087268;28;20228;-50
2023/02/06 00:44:12;;;;;;;15.47;8.07;;;;;20.60;102978.00;;;;2088125;28;20266;-50
2023/02/06 00:45:13;;;;;;;12.10;8.27;;;;;20.10;102989.00;;;;2088136;28;20232;-50
2023/02/06 00:46:13;;;;;;;14.10;8.03;;;;;20.40;102989.00;;;;2088110;28;20226;-50
2023/02/06 00:47:13;;;;;;;11.80;7.67;;;;;20.60;102988.00;;;;2087668;28;20216;-50
2023/02/06 00:48:15;;;;;;;12.77;8.20;;;;;20.60;102986.00;;;;2087172;28;20633;-50
2023/02/06 00:49:15;;;;;;;16.55;8.73;;;;;20.60;102989.00;;;;2087817;28;20212;-50
2023/02/06 00:50:16;;;;;;;12.63;8.40;;;;;20.60;102991.00;;;;2087487;28;20213;-50
2023/02/06 00:51:16;;;;;;;10.70;7.27;;;;;20.60;102980.00;;;;2087190;28;20216;-50
2023/02/06 00:52:17;;;;;;;11.47;7.20;;;;;20.50;102977.00;;;;2087371;28;20219;-50
2023/02/06 00:53:17;;;;;;;11.37;7.37;;;;;20.60;102979.00;;;;2087354;28;20216;-50
2023/02/06 00:54:19;;;;;;;12.77;7.50;;;;;20.60;102979.00;;;;2087133;28;20231;-50
2023/02/06 00:55:20;;;;;;;14.48;7.97;;;;;20.60;102972.00;;;;2087060;28;20216;-50
2023/02/06 00:56:20;;;;;;;16.03;8.00;;;;;20.60;102973.00;;;;2087256;28;20217;-50
2023/02/06 00:57:20;;;;;;;10.43;6.17;;;;;20.60;103016.00;;;;2087646;28;20224;-50
2023/02/06 00:58:21;;;;;;;13.63;7.33;;;;;20.50;102987.00;;;;2085654;28;20676;-53
2023/02/06 00:59:21;;;;;;;11.60;6.90;;;;;20.50;102985.00;;;;2087553;28;20754;-55
2023/02/06 01:00:21;;;;;;;12.93;7.03;;;;;20.50;102982.00;;;;2087695;28;20213;-54
2023/02/06 01:01:22;;;;;;;14.10;7.93;;;;;20.60;102986.00;;;;2087687;28;20235;-51
2023/02/06 01:02:22;;;;;;;12.20;6.97;;;;;20.50;102983.00;;;;2087401;28;20209;-52
2023/02/06 01:03:22;;;;;;;13.60;7.47;;;;;20.50;102976.00;;;;2086968;28;20815;-51
2023/02/06 01:04:23;;;;;;;9.97;6.40;;;;;20.50;102976.00;;;;2087265;28;20224;-50
2023/02/06 01:05:23;;;;;;;10.60;6.80;;;;;20.50;102976.00;;;;2087676;28;20204;-50
2023/02/06 01:06:23;;;;;;;11.83;7.10;;;;;20.50;102980.00;;;;2087681;28;20220;-50
2023/02/06 01:07:24;;;;;;;15.47;7.97;;;;;20.50;102976.00;;;;2087544;28;20304;-50
2023/02/06 01:08:24;;;;;;;11.53;6.87;;;;;20.50;102972.00;;;;2086586;28;20216;-50
2023/02/06 01:09:24;;;;;;;12.30;6.70;;;;;20.50;102978.00;;;;2087007;28;20221;-50
2023/02/06 01:10:25;;;;;;;10.23;6.33;;;;;20.50;102976.00;;;;2086879;28;20224;-50
2023/02/06 01:11:26;;;;;;;12.97;6.27;;;;;20.50;102971.00;;;;2087645;28;20219;-50
2023/02/06 01:12:26;;;;;;;12.20;6.93;;;;;20.50;102977.00;;;;2087313;28;20220;-50
2023/02/06 01:13:27;;;;;;;13.13;7.20;;;;;20.50;102974.00;;;;2087094;28;20213;-50
2023/02/06 01:14:27;;;;;;;11.43;6.40;;;;;20.50;102976.00;;;;2087056;28;20222;-49
2023/02/06 01:15:27;;;;;;;10.43;6.30;;;;;20.50;102976.00;;;;2087361;28;20344;-50
2023/02/06 01:16:27;;;;;;;10.27;5.80;;;;;20.50;102982.00;;;;2087306;28;20217;-50
2023/02/06 01:17:28;;;;;;;11.20;6.93;;;;;20.50;102976.00;;;;2087514;28;20217;-49
2023/02/06 01:18:28;;;;;;;12.43;6.37;;;;;20.40;102985.00;;;;2085576;28;20219;-50
2023/02/06 01:19:28;;;;;;;11.73;5.90;;;;;20.40;102981.00;;;;2086608;28;20213;-50
2023/02/06 01:20:29;;;;;;;9.73;6.00;;;;;20.40;102977.00;;;;2087741;28;20213;-51
2023/02/06 01:21:29;;;;;;;11.37;6.57;;;;;20.40;102978.00;;;;2087904;28;20278;-52
2023/02/06 01:22:32;;;;;;;10.67;6.23;;;;;20.40;102978.00;;;;2087824;28;20205;-51
2023/02/06 01:23:32;;;;;;;13.38;6.57;;;;;20.40;102986.00;;;;2087701;28;20786;-49
2023/02/06 01:24:32;;;;;;;10.73;6.07;;;;;20.40;102980.00;;;;2087661;28;20274;-50
2023/02/06 01:25:33;;;;;;;14.57;6.60;;;;;20.40;102986.00;;;;2086804;28;20208;-51
2023/02/06 01:26:33;;;;;;;11.90;6.37;;;;;20.40;102988.00;;;;2087727;28;20209;-49
2023/02/06 01:27:35;;;;;;;11.63;6.37;;;;;20.40;102989.00;;;;2087779;28;20931;-50
2023/02/06 01:28:39;;;;;;;12.00;6.40;;;;;20.40;102990.00;;;;2087026;28;20227;-50
2023/02/06 01:29:40;;;;;;;13.23;6.40;;;;;20.40;103002.00;;;;2087919;28;20232;-50
2023/02/06 01:30:40;;;;;;;10.97;5.90;;;;;20.40;103002.00;;;;2087941;28;20251;-50
2023/02/06 01:31:40;;;;;;;11.87;5.67;;;;;20.40;102997.00;;;;2087632;28;20235;-54
2023/02/06 01:32:41;;;;;;;10.37;6.10;;;;;20.40;102998.00;;;;2087719;28;20220;-50
2023/02/06 01:33:41;;;;;;;10.60;6.30;;;;;20.40;103001.00;;;;2087883;28;20213;-50
2023/02/06 01:34:42;;;;;;;9.87;5.20;;;;;20.40;103000.00;;;;2087082;28;20219;-50
2023/02/06 01:35:42;;;;;;;9.37;5.40;;;;;20.40;103012.00;;;;2087335;28;20216;-50
2023/02/06 01:36:42;;;;;;;9.60;5.47;;;;;20.30;102994.00;;;;2086498;28;20862;-50
2023/02/06 01:37:43;;;;;;;9.83;5.53;;;;;20.40;102996.00;;;;2086773;28;20703;-50
2023/02/06 01:38:43;;;;;;;12.30;5.83;;;;;20.30;103003.00;;;;2086853;28;21034;-50
2023/02/06 01:39:43;;;;;;;10.10;5.77;;;;;20.30;102999.00;;;;2087816;28;20851;-50
2023/02/06 01:40:44;;;;;;;11.40;5.87;;;;;20.30;102994.00;;;;2087482;28;20213;-50
2023/02/06 01:41:45;;;;;;;10.40;5.83;;;;;20.30;102989.00;;;;2087645;28;20232;-50
2023/02/06 01:42:45;;;;;;;10.80;5.50;;;;;20.30;102997.00;;;;2087744;28;20217;-50
2023/02/06 01:44:11;;;;;;;8.00;4.97;;;;;20.30;102997.00;;;;2087720;28;20212;-50
2023/02/06 01:45:20;;;;;;;11.32;5.30;;;;;20.30;102994.00;;;;2087289;28;20711;-50
2023/02/06 01:46:20;;;;;;;9.93;5.50;;;;;20.30;102996.00;;;;2087324;28;20238;-50
2023/02/06 01:47:21;;;;;;;10.20;5.57;;;;;20.30;103006.00;;;;2087817;28;20302;-50
2023/02/06 01:48:28;;;;;;;11.00;5.53;;;;;20.30;103001.00;;;;2087033;28;20208;-50
2023/02/06 01:49:33;;;;;;;9.85;5.07;;;;;20.30;103000.00;;;;2086901;28;20302;-53
2023/02/06 01:50:34;;;;;;;9.07;4.97;;;;;20.30;102983.00;;;;2079555;28;20217;-50
2023/02/06 01:51:35;;;;;;;10.03;5.30;;;;;20.30;102982.00;;;;2078801;28;20245;-51
2023/02/06 01:52:35;;;;;;;11.47;4.97;;;;;20.30;102999.00;;;;2070630;28;20522;-50
2023/02/06 01:53:35;;;;;;;9.60;4.70;;;;;20.30;102986.00;;;;2078641;28;20217;-51
2023/02/06 01:54:36;;;;;;;9.60;5.07;;;;;20.30;102982.00;;;;2086891;28;20295;-50
2023/02/06 01:55:36;;;;;;;10.10;5.13;;;;;20.30;102986.00;;;;2070669;28;20214;-51
2023/02/06 01:56:44;;;;;;;11.10;6.00;;;;;20.30;102964.00;;;;2070229;28;20224;-50
2023/02/06 01:57:44;;;;;;;9.25;5.50;;;;;20.20;102987.00;;;;2071748;28;20249;-50
2023/02/06 01:58:47;;;;;;;10.93;5.20;;;;;20.30;102995.00;;;;2062021;28;20289;-51
2023/02/06 01:59:49;;;;;;;9.57;4.85;;;;;20.20;102986.00;;;;2071274;28;20221;-50
2023/02/06 02:00:50;;;;;;;13.10;5.30;;;;;20.20;102988.00;;;;2079143;28;20342;-50
2023/02/06 02:01:50;;;;;;;7.47;4.40;;;;;20.30;102988.00;;;;2078697;28;20303;-50
2023/02/06 02:02:50;;;;;;;6.97;4.37;;;;;20.20;102991.00;;;;2086820;28;20197;-50
2023/02/06 02:03:53;;;;;;;10.17;4.80;;;;;20.20;102995.00;;;;2086607;28;20216;-50
2023/02/06 02:04:54;;;;;;;7.63;4.70;;;;;20.20;102989.00;;;;2078353;28;21155;-50
2023/02/06 02:05:59;;;;;;;6.50;4.65;;;;;20.20;102998.00;;;;2078583;28;20267;-49
2023/02/06 02:07:13;;;;;;;8.60;5.15;;;;;20.20;103001.00;;;;2079054;28;20214;-50
2023/02/06 02:08:22;;;;;;;8.73;4.45;;;;;20.20;102981.00;;;;2079456;28;20317;-50
2023/02/06 02:09:22;;;;;;;7.60;4.53;;;;;20.20;102997.00;;;;2071676;28;20365;-50
2023/02/06 02:10:22;;;;;;;9.23;4.43;;;;;20.20;102992.00;;;;2062305;28;20273;-50
2023/02/06 02:11:29;;;;;;;9.83;4.30;;;;;20.20;103001.00;;;;2077631;28;20228;-50
2023/02/06 02:12:30;;;;;;;8.90;4.25;;;;;20.20;102996.00;;;;2078978;28;20247;-50
2023/02/06 02:13:31;;;;;;;10.10;4.20;;;;;20.20;103000.00;;;;2086578;28;20316;-50
2023/02/06 02:14:31;;;;;;;7.87;4.30;;;;;20.20;102995.00;;;;2087392;28;20279;-50
2023/02/06 02:15:56;;;;;;;8.40;4.53;;;;;20.20;102965.00;;;;2087043;28;20452;-50
2023/02/06 02:17:09;;;;;;;11.05;4.13;;;;;20.20;102986.00;;;;2081786;28;20292;-50
2023/02/06 02:18:26;;;;;;;8.23;3.78;;;;;20.20;102979.00;;;;2079829;28;20244;-50
2023/02/06 02:19:38;;;;;;;8.90;4.32;;;;;20.20;102982.00;;;;2081459;28;20220;-50
2023/02/06 02:21:02;;;;;;;10.25;4.65;;;;;20.20;102979.00;;;;2085924;28;20241;-50
2023/02/06 02:22:13;;;;;;;7.60;4.25;;;;;20.20;102977.00;;;;2087285;28;20215;-50
2023/02/06 02:23:19;;;;;;;7.38;3.83;;;;;20.20;102967.00;;;;2085928;28;20213;-50
2023/02/06 02:24:34;;;;;;;8.15;4.10;;;;;20.20;102860.00;;;;2084446;28;20209;-49
2023/02/06 02:25:40;;;;;;;7.32;4.55;;;;;20.20;102976.00;;;;2069591;28;20240;-50
2023/02/06 02:27:18;;;;;;;8.75;4.03;;;;;20.20;102982.00;;;;2088265;28;20577;-50
2023/02/06 02:28:52;;;;;;;9.75;4.20;;;;;20.10;102974.00;;;;2086429;28;20575;-50
2023/02/06 02:30:06;;;;;;;6.93;3.80;;;;;20.20;102975.00;;;;2087327;28;20213;-50
2023/02/06 02:31:26;;;;;;;7.75;3.80;;;;;20.10;102976.00;;;;2086349;28;20692;-49
2023/02/06 02:32:48;;;;;;;7.70;3.88;;;;;20.10;102981.00;;;;2081846;28;20221;-50
2023/02/06 02:34:30;;;;;;;7.35;3.97;;;;;20.10;102982.00;;;;2086827;28;20213;-50
2023/02/06 02:35:44;;;;;;;7.82;3.80;;;;;20.10;102976.00;;;;2085640;28;20220;-50
2023/02/06 02:36:50;;;;;;;7.35;3.28;;;;;20.10;102980.00;;;;2086874;28;20213;-50
2023/02/06 02:37:59;;;;;;;9.23;4.60;;;;;20.10;102966.00;;;;2075956;28;20779;-50
2023/02/06 02:39:26;;;;;;;7.22;3.72;;;;;20.10;102963.00;;;;2079583;28;20217;-50
2023/02/06 02:40:49;;;;;;;7.18;3.65;;;;;20.10;102982.00;;;;2081022;28;20323;-50
2023/02/06 02:41:59;;;;;;;8.02;4.22;;;;;20.10;102972.00;;;;2080307;28;20267;-50
2023/02/06 02:43:12;;;;;;;8.68;3.90;;;;;20.10;102987.00;;;;2080121;28;20277;-51
2023/02/06 02:44:18;;;;;;;9.68;4.32;;;;;20.10;102986.00;;;;2079937;28;20218;-50
2023/02/06 02:45:21;;;;;;;7.57;4.07;;;;;20.00;102983.00;;;;2086757;28;20216;-50
2023/02/06 02:46:42;;;;;;;10.23;3.80;;;;;20.00;102980.00;;;;2077004;28;20213;-50
2023/02/06 02:47:54;;;;;;;8.98;4.10;;;;;20.10;102987.00;;;;2065141;28;20761;-50
2023/02/06 02:48:55;;;;;;;9.75;4.00;;;;;20.00;102987.00;;;;2071439;28;20942;-50
2023/02/06 02:49:57;;;;;;;9.18;3.80;;;;;20.00;102984.00;;;;2078806;28;20791;-50
2023/02/06 02:50:57;;;;;;;7.95;3.78;;;;;20.10;102985.00;;;;2077868;28;20229;-51
2023/02/06 02:51:57;;;;;;;6.90;3.70;;;;;20.00;102957.00;;;;2078310;28;20252;-50
2023/02/06 02:52:58;;;;;;;6.00;3.23;;;;;20.00;102983.00;;;;2069297;28;20233;-51
2023/02/06 02:53:58;;;;;;;7.13;3.53;;;;;20.10;102989.00;;;;2078001;28;20221;-51
2023/02/06 02:54:59;;;;;;;7.43;3.30;;;;;20.00;102983.00;;;;2086055;28;20559;-51
2023/02/06 02:55:59;;;;;;;7.27;4.13;;;;;20.00;102987.00;;;;2085318;28;20208;-51
2023/02/06 02:57:20;;;;;;;9.67;4.23;;;;;20.00;102981.00;;;;2086105;28;20217;-51
2023/02/06 02:58:22;;;;;;;7.07;3.90;;;;;20.00;102984.00;;;;2085313;28;20213;-50
2023/02/06 02:59:27;;;;;;;6.70;3.95;;;;;20.00;102983.00;;;;2077541;28;20293;-51
2023/02/06 03:00:27;;;;;;;9.88;5.13;;;;;20.00;102998.00;;;;2070174;28;20221;-50
2023/02/06 03:01:57;;;;;;;10.63;5.57;;;;;20.00;102988.00;;;;2077962;28;20678;-50
2023/02/06 03:02:58;;;;;;;9.55;5.50;;;;;20.00;102974.00;;;;2081724;28;20221;-50
2023/02/06 03:04:00;;;;;;;11.90;6.30;;;;;20.00;102966.00;;;;2077866;28;20599;-50
2023/02/06 03:05:08;;;;;;;12.45;6.78;;;;;20.00;102948.00;;;;2068482;28;20218;-50
2023/02/06 03:06:31;;;;;;;12.88;7.28;;;;;20.00;102983.00;;;;2072130;28;20249;-50
2023/02/06 03:07:37;;;;;;;15.15;8.15;;;;;20.00;102972.00;;;;2081091;28;20916;-50
2023/02/06 03:08:50;;;;;;;15.57;8.70;;;;;19.90;102976.00;;;;2085538;28;20220;-50
2023/02/06 03:10:11;;;;;;;14.82;9.48;;;;;20.00;102977.00;;;;2086347;28;20212;-50
2023/02/06 03:11:15;;;;;;;17.83;10.50;;;;;20.00;102973.00;;;;2086135;28;20209;-51
2023/02/06 03:12:38;;;;;;;19.52;10.25;;;;;20.00;102983.00;;;;2078405;28;20240;-50
2023/02/06 03:13:50;;;;;;;15.35;10.02;;;;;19.90;102980.00;;;;2061111;28;20219;-50
2023/02/06 03:14:55;;;;;;;16.27;10.38;;;;;20.00;102981.00;;;;2077559;28;20245;-50
2023/02/06 03:16:16;;;;;;;19.20;11.32;;;;;20.00;102978.00;;;;2071631;28;20222;-50
2023/02/06 03:17:20;;;;;;;17.92;10.18;;;;;20.00;102978.00;;;;2085597;28;20676;-52
2023/02/06 03:18:41;;;;;;;17.48;10.23;;;;;20.00;102982.00;;;;2085486;28;20248;-51
2023/02/06 03:19:54;;;;;;;17.25;10.30;;;;;19.40;102961.00;;;;2085580;28;20716;-55
2023/02/06 03:20:54;;;;;;;19.08;10.73;;;;;19.90;102984.00;;;;2071289;28;20222;-50
2023/02/06 03:21:54;;;;;;;19.20;10.37;;;;;19.90;102979.00;;;;2070424;28;20218;-50
2023/02/06 03:22:55;;;;;;;16.50;9.80;;;;;19.90;102958.00;;;;2085207;28;20220;-50
2023/02/06 03:23:59;;;;;;;17.53;10.07;;;;;19.90;102964.00;;;;2069874;28;20312;-51
2023/02/06 03:25:01;;;;;;;13.93;9.30;;;;;19.90;102953.00;;;;2069426;28;20218;-50
2023/02/06 03:26:01;;;;;;;18.88;10.55;;;;;19.90;102971.00;;;;2069543;28;20214;-50
2023/02/06 03:27:03;;;;;;;13.80;8.20;;;;;20.00;102981.00;;;;2069762;28;20230;-50
2023/02/06 03:28:04;;;;;;;15.00;8.25;;;;;19.90;102978.00;;;;2060785;28;20273;-51
2023/02/06 03:29:06;;;;;;;15.13;8.60;;;;;20.00;102976.00;;;;2061805;28;20317;-50
2023/02/06 03:30:08;;;;;;;16.75;8.80;;;;;20.00;102976.00;;;;2077894;28;20795;-51
2023/02/06 03:31:10;;;;;;;16.63;8.63;;;;;19.90;102970.00;;;;2077429;28;20309;-51
2023/02/06 03:32:28;;;;;;;17.70;9.43;;;;;20.00;102973.00;;;;2060828;28;20264;-50
2023/02/06 03:33:34;;;;;;;17.45;8.73;;;;;19.90;102975.00;;;;2065799;28;20303;-50
2023/02/06 03:34:57;;;;;;;17.30;8.95;;;;;19.90;102975.00;;;;2069803;28;20233;-50
2023/02/06 03:35:57;;;;;;;15.77;8.63;;;;;19.90;102972.00;;;;2080781;28;20276;-50
2023/02/06 03:36:58;;;;;;;15.87;8.50;;;;;19.90;102973.00;;;;2085056;28;20262;-50
2023/02/06 03:37:58;;;;;;;13.27;9.00;;;;;19.90;102973.00;;;;2080171;28;20220;-50
2023/02/06 03:38:59;;;;;;;15.97;9.07;;;;;19.90;102966.00;;;;2084805;28;21008;-50
2023/02/06 03:39:59;;;;;;;13.70;7.37;;;;;19.90;102975.00;;;;2084486;28;20216;-50
2023/02/06 03:40:59;;;;;;;17.90;8.43;;;;;19.90;102977.00;;;;2074545;28;20214;-50
2023/02/06 03:42:00;;;;;;;14.73;7.97;;;;;19.90;102976.00;;;;2076975;28;20240;-50
2023/02/06 03:43:02;;;;;;;16.70;7.60;;;;;19.90;102967.00;;;;2084547;28;20344;-50
2023/02/06 03:44:04;;;;;;;12.60;7.22;;;;;19.90;102971.00;;;;2068522;28;20217;-51
2023/02/06 03:45:09;;;;;;;12.90;7.25;;;;;19.90;102976.00;;;;2069344;28;20241;-51
2023/02/06 03:46:11;;;;;;;13.65;7.10;;;;;19.90;102975.00;;;;2077783;28;20696;-50
2023/02/06 03:47:11;;;;;;;13.43;7.10;;;;;19.80;102977.00;;;;2069840;28;20218;-50
2023/02/06 03:48:16;;;;;;;12.33;6.53;;;;;19.80;102973.00;;;;2076475;28;20209;-50
2023/02/06 03:49:16;;;;;;;9.38;6.63;;;;;19.90;102976.00;;;;2077892;28;20288;-50
2023/02/06 03:50:17;;;;;;;12.83;7.87;;;;;19.80;102977.00;;;;2078201;28;20213;-50
2023/02/06 03:51:23;;;;;;;15.10;7.10;;;;;19.80;102978.00;;;;2069771;28;20206;-50
2023/02/06 03:52:25;;;;;;;13.15;6.88;;;;;19.80;102977.00;;;;2078395;28;20213;-51
2023/02/06 03:53:25;;;;;;;13.38;6.55;;;;;19.80;102981.00;;;;2060258;28;21096;-50
2023/02/06 03:54:25;;;;;;;11.03;6.17;;;;;19.80;102979.00;;;;2069784;28;20218;-50
2023/02/06 03:55:26;;;;;;;12.97;6.60;;;;;19.80;102979.00;;;;2078541;28;20236;-50
2023/02/06 03:56:32;;;;;;;9.63;5.87;;;;;19.80;102980.00;;;;2085872;28;20217;-50
2023/02/06 03:57:33;;;;;;;11.35;6.50;;;;;19.80;102979.00;;;;2084721;28;20213;-51
2023/02/06 03:58:33;;;;;;;12.60;6.83;;;;;19.80;102967.00;;;;2076969;28;20220;-51
2023/02/06 03:59:33;;;;;;;13.70;6.37;;;;;19.80;102972.00;;;;2069834;28;20272;-51
2023/02/06 04:00:34;;;;;;;9.80;5.90;;;;;19.80;102950.00;;;;2077671;28;20322;-51
2023/02/06 04:01:39;;;;;;;14.10;6.97;;;;;19.80;102977.00;;;;2077729;28;20216;-51
2023/02/06 04:02:39;;;;;;;11.65;6.03;;;;;19.80;102973.00;;;;2070567;28;20690;-50
2023/02/06 04:03:39;;;;;;;12.70;5.70;;;;;19.70;102976.00;;;;2069682;28;20240;-51
2023/02/06 04:04:40;;;;;;;8.30;5.07;;;;;19.80;102979.00;;;;2077864;28;20206;-50
2023/02/06 04:05:41;;;;;;;11.05;6.47;;;;;19.80;102994.00;;;;2086655;28;20705;-48
2023/02/06 04:06:41;;;;;;;11.13;5.47;;;;;19.80;102973.00;;;;2086667;28;20232;-49
2023/02/06 04:07:41;;;;;;;9.30;5.27;;;;;19.80;102981.00;;;;2077855;28;20559;-49
2023/02/06 04:08:42;;;;;;;9.27;5.10;;;;;19.70;102978.00;;;;2068625;28;20226;-49
2023/02/06 04:09:42;;;;;;;9.40;5.97;;;;;19.70;102984.00;;;;2085648;28;20859;-49
2023/02/06 04:10:42;;;;;;;11.27;5.43;;;;;19.70;102980.00;;;;2086645;28;20627;-49
2023/02/06 04:11:43;;;;;;;9.67;5.33;;;;;19.70;102980.00;;;;2086097;28;20303;-50
2023/02/06 04:12:43;;;;;;;10.87;6.03;;;;;19.70;102975.00;;;;2086074;28;20220;-51
2023/02/06 04:13:43;;;;;;;10.90;5.80;;;;;19.70;102974.00;;;;2085937;28;20212;-50
2023/02/06 04:14:44;;;;;;;8.90;4.60;;;;;19.70;102979.00;;;;2086285;28;20310;-51
2023/02/06 04:15:44;;;;;;;8.37;5.03;;;;;19.70;102977.00;;;;2086528;28;20216;-50
2023/02/06 04:16:44;;;;;;;11.03;5.67;;;;;19.70;102971.00;;;;2078272;28;20220;-50
2023/02/06 04:17:45;;;;;;;10.90;5.57;;;;;19.70;102968.00;;;;2093090;28;20251;-50
2023/02/06 04:18:45;;;;;;;9.80;5.60;;;;;19.70;102971.00;;;;2089411;28;20248;-50
2023/02/06 04:19:45;;;;;;;9.80;5.20;;;;;19.70;102972.00;;;;2086050;28;20212;-50
2023/02/06 04:20:46;;;;;;;13.50;4.97;;;;;19.70;102967.00;;;;2086038;28;20220;-50
2023/02/06 04:21:46;;;;;;;8.40;4.67;;;;;19.70;102973.00;;;;2085639;28;20220;-50
2023/02/06 04:22:46;;;;;;;10.60;5.40;;;;;19.70;102976.00;;;;2085508;28;20236;-50
2023/02/06 04:23:47;;;;;;;9.20;4.80;;;;;19.70;102973.00;;;;2085638;28;20303;-50
2023/02/06 04:24:47;;;;;;;8.80;4.37;;;;;19.70;102968.00;;;;2085365;28;20839;-50
2023/02/06 04:25:48;;;;;;;12.47;5.43;;;;;19.70;102996.00;;;;2085269;28;20669;-50
2023/02/06 04:26:48;;;;;;;10.63;5.20;;;;;19.70;102968.00;;;;2086056;28;20703;-50
2023/02/06 04:27:48;;;;;;;8.00;4.60;;;;;19.70;102965.00;;;;2085889;28;20680;-50
2023/02/06 04:28:49;;;;;;;8.47;4.33;;;;;19.70;102971.00;;;;2084475;28;20657;-50
2023/02/06 04:29:49;;;;;;;10.17;4.53;;;;;19.70;102965.00;;;;2085636;28;20298;-50
2023/02/06 04:30:49;;;;;;;11.00;5.20;;;;;19.60;102972.00;;;;2085858;28;20231;-50
2023/02/06 04:31:50;;;;;;;8.40;4.30;;;;;19.70;102961.00;;;;2085200;28;20341;-50
2023/02/06 04:32:50;;;;;;;6.63;4.27;;;;;19.60;102979.00;;;;2085801;28;20251;-50
2023/02/06 04:33:50;;;;;;;8.80;4.67;;;;;19.70;102986.00;;;;2086211;28;20220;-50
2023/02/06 04:34:51;;;;;;;8.33;4.50;;;;;19.60;102982.00;;;;2086230;28;20228;-50
2023/02/06 04:35:51;;;;;;;9.13;4.93;;;;;19.70;102985.00;;;;2086563;28;20232;-50
2023/02/06 04:36:52;;;;;;;8.50;3.90;;;;;19.70;102986.00;;;;2085866;28;20247;-50
2023/02/06 04:37:53;;;;;;;6.63;3.93;;;;;19.70;102987.00;;;;2084880;28;20295;-50
2023/02/06 04:38:53;;;;;;;10.03;5.10;;;;;19.70;102995.00;;;;2085442;28;20213;-51
2023/02/06 04:39:53;;;;;;;7.60;3.87;;;;;19.60;102986.00;;;;2086696;28;20452;-50
2023/02/06 04:40:54;;;;;;;10.93;4.43;;;;;19.60;102990.00;;;;2086229;28;20247;-50
2023/02/06 04:41:54;;;;;;;8.30;4.20;;;;;19.60;102987.00;;;;2086559;28;20240;-51
2023/02/06 04:42:54;;;;;;;6.80;3.77;;;;;19.60;102987.00;;;;2086445;28;20247;-50
2023/02/06 04:43:55;;;;;;;9.03;4.70;;;;;19.60;102992.00;;;;2086097;28;20360;-50
2023/02/06 04:44:55;;;;;;;9.57;4.30;;;;;19.60;102983.00;;;;2086487;28;20278;-50
2023/02/06 04:45:55;;;;;;;8.83;4.67;;;;;19.60;102992.00;;;;2086335;28;20239;-51
2023/02/06 04:46:56;;;;;;;6.63;3.80;;;;;19.60;102988.00;;;;2086261;28;20221;-50
2023/02/06 04:47:56;;;;;;;8.70;4.80;;;;;19.60;102993.00;;;;2085607;28;20217;-50
2023/02/06 04:48:56;;;;;;;7.67;3.90;;;;;19.60;102993.00;;;;2084788;28;20251;-51
2023/02/06 04:49:57;;;;;;;6.80;3.87;;;;;19.60;102995.00;;;;2086175;28;20254;-50
2023/02/06 04:50:57;;;;;;;8.37;3.93;;;;;19.60;102996.00;;;;2086607;28;20212;-51
2023/02/06 04:51:57;;;;;;;7.00;4.30;;;;;19.60;103000.00;;;;2086244;28;20221;-50
2023/02/06 04:52:58;;;;;;;8.93;4.30;;;;;19.60;102993.00;;;;2086434;28;20308;-50
2023/02/06 04:53:58;;;;;;;7.30;4.40;;;;;19.60;103000.00;;;;2082330;28;20204;-50
2023/02/06 04:54:58;;;;;;;6.67;4.13;;;;;19.60;103001.00;;;;2084991;28;20220;-50
2023/02/06 04:56:03;;;;;;;7.17;4.00;;;;;19.60;103003.00;;;;2086500;28;20240;-51
2023/02/06 04:57:04;;;;;;;8.27;4.50;;;;;19.60;103005.00;;;;2085365;28;20712;-51
2023/02/06 04:58:04;;;;;;;8.20;3.90;;;;;19.60;103000.00;;;;2084867;28;20227;-50
2023/02/06 04:59:04;;;;;;;8.30;4.30;;;;;19.60;102997.00;;;;2086384;28;20212;-50
2023/02/06 05:00:05;;;;;;;7.97;4.00;;;;;19.60;103005.00;;;;2086423;28;20237;-51
2023/02/06 05:01:05;;;;;;;8.27;4.67;;;;;19.60;103003.00;;;;2086236;28;20213;-51
2023/02/06 05:02:06;;;;;;;7.90;4.07;;;;;19.60;102882.00;;;;2086690;28;20840;-50
2023/02/06 05:03:06;;;;;;;6.83;3.80;;;;;19.60;103000.00;;;;2083272;28;20587;-50
2023/02/06 05:04:06;;;;;;;9.00;4.03;;;;;19.60;103005.00;;;;2086369;28;20610;-50
2023/02/06 05:05:07;;;;;;;7.67;4.00;;;;;19.50;102997.00;;;;2086578;28;20784;-50
2023/02/06 05:06:08;;;;;;;8.13;4.50;;;;;19.60;103009.00;;;;2085949;28;20623;-50
2023/02/06 05:07:08;;;;;;;9.00;4.83;;;;;19.60;103005.00;;;;2086287;28;20205;-50
2023/02/06 05:08:08;;;;;;;9.90;4.37;;;;;19.50;103011.00;;;;2082942;28;20950;-50
2023/02/06 05:09:09;;;;;;;7.60;4.23;;;;;19.50;103005.00;;;;2084625;28;20574;-50
2023/02/06 05:10:10;;;;;;;8.13;4.67;;;;;19.50;103014.00;;;;2087139;28;20870;-51